Maersk Danang — A8PS5 — position and weather

sailwx.info

Track history (hours):
 
Tides and Currents Weather Stations Pressure Air Temp Water Temp Dewpoint Dewpoint Depression Visibility Wind Speed Wind Dir Waves Ship Positions

Maersk Danang

Last reported at 2015-Aug-24 05:11 UTC. Time now 2015-Aug-30 18:09 UTC.
Position N 02°57' E 100°52'.

Length 293 m; draft 13.4 m.

Type: Ship (hazmat cat A). MMSI: 636091595.

Date/timePositionNaut miles runAvg speedWind from/ knotsBaromVisibWave heightAir tempDewpointWater temp
2015-Aug-24 05:11N 02°57' E 100°52'13417.5
2015-Aug-23 21:32N 01°43' E 102°44'6615.2
2015-Aug-23 17:12N 01°15' E 103°43'3 4.3
2015-Aug-23 16:29N 01°16' E 103°46'0 0.0
2015-Aug-23 15:33N 01°16' E 103°46'0 0.0
2015-Aug-23 14:33N 01°16' E 103°46'0 0.0
2015-Aug-23 13:33N 01°16' E 103°46'0 0.0
2015-Aug-23 12:33N 01°16' E 103°46'0 0.0
2015-Aug-23 11:33N 01°16' E 103°46'0 0.0
2015-Aug-23 10:33N 01°16' E 103°46'0 0.0
2015-Aug-23 09:33N 01°16' E 103°46'0 0.0
2015-Aug-23 08:33N 01°16' E 103°46'0 0.0
2015-Aug-23 07:33N 01°16' E 103°46'0 0.0
2015-Aug-23 06:33N 01°16' E 103°46'0 0.0
2015-Aug-23 05:33N 01°16' E 103°46'0 0.0
2015-Aug-23 04:29N 01°16' E 103°46'0 0.0
2015-Aug-23 03:33N 01°16' E 103°46'0 0.0
2015-Aug-23 02:33N 01°16' E 103°46'0 0.0
2015-Aug-23 01:33N 01°16' E 103°46'0 0.0
2015-Aug-23 00:33N 01°16' E 103°46'0 0.0
2015-Aug-22 23:33N 01°16' E 103°46'0 0.0
2015-Aug-22 22:33N 01°16' E 103°46'0 0.0
2015-Aug-22 21:33N 01°16' E 103°46'0 0.0
2015-Aug-22 20:33N 01°16' E 103°46'0 0.3
2015-Aug-22 19:33N 01°16' E 103°46'8 7.7
2015-Aug-22 18:33N 01°14' E 103°53'1313.1
2015-Aug-22 17:33N 01°16' E 104°06'  
2015-Aug-19 01:33N 22°34' E 114°16'0 0.1
2015-Aug-19 00:06N 22°34' E 114°16'0 0.0
2015-Aug-18 22:17N 22°34' E 114°16'0 0.0
2015-Aug-18 21:17N 22°34' E 114°16'0 0.0
2015-Aug-18 20:28N 22°34' E 114°16'0 0.0
2015-Aug-18 19:10N 22°34' E 114°16'0 0.0
2015-Aug-18 18:15N 22°34' E 114°16'0 0.0
2015-Aug-18 17:33N 22°34' E 114°16'0 0.0
2015-Aug-18 16:09N 22°34' E 114°16'0 0.0
2015-Aug-18 15:32N 22°34' E 114°16'0 0.3
2015-Aug-18 14:33N 22°34' E 114°16'13815.2
2015-Aug-18 05:29N 22°49' E 116°45'1816.5
2015-Aug-18 04:24N 22°58' E 117°02'4815.7
2015-Aug-18 01:21N 23°28' E 117°41'1415.7
2015-Aug-18 00:29N 23°36' E 117°54'3316.8
2015-Aug-17 22:32N 23°56' E 118°22'1717.4
2015-Aug-17 21:33N 24°07' E 118°37'1717.5
2015-Aug-17 20:33N 24°18' E 118°51'1717.4
2015-Aug-17 19:33N 24°29' E 119°06'34016.6
2015-Aug-16 23:06N 29°17' E 122°28'1518.1
2015-Aug-16 22:15N 29°32' E 122°27'1318.2
2015-Aug-16 21:32N 29°44' E 122°21'1313.3
2015-Aug-16 20:32N 29°54' E 122°10'7 1.2
2015-Aug-16 14:20N 29°54' E 122°02'0 0.0
2015-Aug-16 13:26N 29°54' E 122°02'0 0.0
2015-Aug-16 06:14N 29°54' E 122°02'4 5.2
2015-Aug-16 05:32N 29°55' E 122°06'1111.2
2015-Aug-16 04:31N 29°47' E 122°16'1212.3
2015-Aug-16 03:30N 29°44' E 122°29'1415.0
2015-Aug-16 02:33N 29°50' E 122°44'3516.1
2015-Aug-16 00:23N 30°25' E 122°48'3317.9
2015-Aug-15 22:34N 30°33' E 122°12'8 7.0
2015-Aug-15 21:21N 30°38' E 122°03'0 0.0
2015-Aug-15 18:26N 30°38' E 122°03'0 0.0
2015-Aug-15 17:20N 30°38' E 122°03'0 0.0
2015-Aug-15 10:12N 30°38' E 122°03'0 0.0
2015-Aug-15 09:05N 30°38' E 122°03'0 0.0
2015-Aug-15 08:32N 30°38' E 122°03'8 7.4
2015-Aug-15 07:28N 30°34' E 122°11'29 9.1
2015-Aug-15 04:19N 30°28' E 122°44'8213.4
2015-Aug-14 22:13N 31°15' E 124°03'  
Track history (hours):
 
Tides and Currents Weather Stations Pressure Air Temp Water Temp Dewpoint Dewpoint Depression Visibility Wind Speed Wind Dir Waves Ship Positions

Maersk Danang

Last reported at 2015-Aug-24 05:11 UTC. Time now 2015-Aug-30 18:09 UTC.
Position N 02°57' E 100°52'.

Length 293 m; draft 13.4 m.

Type: Ship (hazmat cat A). MMSI: 636091595.

Date/timePositionNaut miles runAvg speedWind from/ knotsBaromVisibWave heightAir tempDewpointWater temp
2015-Aug-24 05:11N 02°57' E 100°52'13417.5
2015-Aug-23 21:32N 01°43' E 102°44'6615.2
2015-Aug-23 17:12N 01°15' E 103°43'3 4.3
2015-Aug-23 16:29N 01°16' E 103°46'0 0.0
2015-Aug-23 15:33N 01°16' E 103°46'0 0.0
2015-Aug-23 14:33N 01°16' E 103°46'0 0.0
2015-Aug-23 13:33N 01°16' E 103°46'0 0.0
2015-Aug-23 12:33N 01°16' E 103°46'0 0.0
2015-Aug-23 11:33N 01°16' E 103°46'0 0.0
2015-Aug-23 10:33N 01°16' E 103°46'0 0.0
2015-Aug-23 09:33N 01°16' E 103°46'0 0.0
2015-Aug-23 08:33N 01°16' E 103°46'0 0.0
2015-Aug-23 07:33N 01°16' E 103°46'0 0.0
2015-Aug-23 06:33N 01°16' E 103°46'0 0.0
2015-Aug-23 05:33N 01°16' E 103°46'0 0.0
2015-Aug-23 04:29N 01°16' E 103°46'0 0.0
2015-Aug-23 03:33N 01°16' E 103°46'0 0.0
2015-Aug-23 02:33N 01°16' E 103°46'0 0.0
2015-Aug-23 01:33N 01°16' E 103°46'0 0.0
2015-Aug-23 00:33N 01°16' E 103°46'0 0.0
2015-Aug-22 23:33N 01°16' E 103°46'0 0.0
2015-Aug-22 22:33N 01°16' E 103°46'0 0.0
2015-Aug-22 21:33N 01°16' E 103°46'0 0.0
2015-Aug-22 20:33N 01°16' E 103°46'0 0.3
2015-Aug-22 19:33N 01°16' E 103°46'8 7.7
2015-Aug-22 18:33N 01°14' E 103°53'1313.1
2015-Aug-22 17:33N 01°16' E 104°06'  
2015-Aug-19 01:33N 22°34' E 114°16'0 0.1
2015-Aug-19 00:06N 22°34' E 114°16'0 0.0
2015-Aug-18 22:17N 22°34' E 114°16'0 0.0
2015-Aug-18 21:17N 22°34' E 114°16'0 0.0
2015-Aug-18 20:28N 22°34' E 114°16'0 0.0
2015-Aug-18 19:10N 22°34' E 114°16'0 0.0
2015-Aug-18 18:15N 22°34' E 114°16'0 0.0
2015-Aug-18 17:33N 22°34' E 114°16'0 0.0
2015-Aug-18 16:09N 22°34' E 114°16'0 0.0
2015-Aug-18 15:32N 22°34' E 114°16'0 0.3
2015-Aug-18 14:33N 22°34' E 114°16'13815.2
2015-Aug-18 05:29N 22°49' E 116°45'1816.5
2015-Aug-18 04:24N 22°58' E 117°02'4815.7
2015-Aug-18 01:21N 23°28' E 117°41'1415.7
2015-Aug-18 00:29N 23°36' E 117°54'3316.8
2015-Aug-17 22:32N 23°56' E 118°22'1717.4
2015-Aug-17 21:33N 24°07' E 118°37'1717.5
2015-Aug-17 20:33N 24°18' E 118°51'1717.4
2015-Aug-17 19:33N 24°29' E 119°06'34016.6
2015-Aug-16 23:06N 29°17' E 122°28'1518.1
2015-Aug-16 22:15N 29°32' E 122°27'1318.2
2015-Aug-16 21:32N 29°44' E 122°21'1313.3
2015-Aug-16 20:32N 29°54' E 122°10'7 1.2
2015-Aug-16 14:20N 29°54' E 122°02'0 0.0
2015-Aug-16 13:26N 29°54' E 122°02'0 0.0
2015-Aug-16 06:14N 29°54' E 122°02'4 5.2
2015-Aug-16 05:32N 29°55' E 122°06'1111.2
2015-Aug-16 04:31N 29°47' E 122°16'1212.3
2015-Aug-16 03:30N 29°44' E 122°29'1415.0
2015-Aug-16 02:33N 29°50' E 122°44'3516.1
2015-Aug-16 00:23N 30°25' E 122°48'3317.9
2015-Aug-15 22:34N 30°33' E 122°12'8 7.0
2015-Aug-15 21:21N 30°38' E 122°03'0 0.0
2015-Aug-15 18:26N 30°38' E 122°03'0 0.0
2015-Aug-15 17:20N 30°38' E 122°03'0 0.0
2015-Aug-15 10:12N 30°38' E 122°03'0 0.0
2015-Aug-15 09:05N 30°38' E 122°03'0 0.0
2015-Aug-15 08:32N 30°38' E 122°03'8 7.4
2015-Aug-15 07:28N 30°34' E 122°11'29 9.1
2015-Aug-15 04:19N 30°28' E 122°44'8213.4
2015-Aug-14 22:13N 31°15' E 124°03'  

Dump ship's entire track history